createdAt,value
2022-09-03T00:02:36.563Z,0.80
2022-09-03T00:05:29.956Z,1.30
2022-09-03T00:08:06.618Z,1.40
2022-09-03T00:10:50.557Z,1.40
2022-09-03T00:15:54.631Z,1.10
2022-09-03T00:18:28.282Z,1.10
2022-09-03T00:23:30.477Z,1.10
2022-09-03T00:26:17.499Z,1.50
2022-09-03T00:28:51.343Z,1.10
2022-09-03T00:31:42.817Z,1.40
2022-09-03T00:34:29.011Z,0.80
2022-09-03T00:36:57.370Z,1.00
2022-09-03T00:39:27.010Z,1.00
2022-09-03T00:42:07.868Z,1.10
2022-09-03T00:44:55.112Z,1.00
2022-09-03T00:47:45.085Z,0.90
2022-09-03T00:50:52.287Z,1.00
2022-09-03T00:53:52.007Z,1.00
2022-09-03T00:56:31.307Z,0.90
2022-09-03T00:59:13.322Z,1.30
2022-09-03T01:02:02.639Z,0.90
2022-09-03T01:04:33.289Z,1.10
2022-09-03T01:07:33.230Z,0.80
2022-09-03T01:10:16.834Z,0.80
2022-09-03T01:13:00.318Z,1.10
2022-09-03T01:15:57.290Z,1.10
2022-09-03T01:18:48.678Z,0.90
2022-09-03T01:21:38.935Z,1.00
2022-09-03T01:24:32.298Z,1.10
2022-09-03T01:27:32.133Z,0.90
2022-09-03T01:30:10.746Z,1.20
2022-09-03T01:32:55.206Z,0.60
2022-09-03T01:35:34.954Z,0.50
2022-09-03T01:38:25.952Z,0.80
2022-09-03T01:41:42.573Z,0.70
2022-09-03T01:44:40.237Z,0.80
2022-09-03T01:47:40.057Z,0.80
2022-09-03T01:50:23.356Z,0.90
2022-09-03T01:53:07.023Z,0.70
2022-09-03T01:58:27.305Z,0.80
2022-09-03T02:01:01.954Z,0.70
2022-09-03T02:03:40.888Z,0.90
2022-09-03T02:06:11.587Z,1.10
2022-09-03T02:08:40.103Z,0.70
2022-09-03T02:11:09.762Z,0.70
2022-09-03T02:13:49.769Z,1.00
2022-09-03T02:16:21.719Z,1.10
2022-09-03T02:18:54.293Z,0.90
2022-09-03T02:21:25.226Z,0.90
2022-09-03T02:23:53.058Z,1.00
2022-09-03T02:26:24.138Z,0.90
2022-09-03T02:28:54.457Z,1.00
2022-09-03T02:31:22.224Z,1.00
2022-09-03T02:33:51.440Z,0.60
2022-09-03T02:36:27.446Z,0.80
2022-09-03T02:38:55.575Z,1.00
2022-09-03T02:41:24.000Z,1.00
2022-09-03T02:44:03.493Z,0.80
2022-09-03T02:46:45.024Z,0.90
2022-09-03T02:49:13.057Z,1.00
2022-09-03T02:51:43.233Z,0.90
2022-09-03T02:54:12.276Z,0.90
2022-09-03T02:56:40.620Z,0.80
2022-09-03T02:59:09.403Z,0.80
2022-09-03T03:01:37.864Z,0.80
2022-09-03T03:04:05.821Z,0.70
2022-09-03T03:06:33.666Z,0.90
2022-09-03T03:09:05.384Z,1.00
2022-09-03T03:11:33.110Z,0.90
2022-09-03T03:14:00.706Z,0.80
2022-09-03T03:16:28.588Z,0.80
2022-09-03T03:18:57.217Z,0.90
2022-09-03T03:21:24.805Z,0.80
2022-09-03T03:23:52.498Z,0.90
2022-09-03T03:26:21.157Z,0.60
2022-09-03T03:28:49.847Z,1.10
2022-09-03T03:31:20.023Z,0.90
2022-09-03T03:33:58.836Z,1.60
2022-09-03T03:36:29.853Z,1.10
2022-09-03T03:38:59.555Z,1.20
2022-09-03T03:41:31.336Z,1.10
2022-09-03T03:44:02.234Z,1.00
2022-09-03T03:46:32.803Z,0.80
2022-09-03T03:49:01.042Z,0.60
2022-09-03T03:51:28.760Z,0.80
2022-09-03T03:54:00.137Z,1.00
2022-09-03T03:56:29.908Z,0.80
2022-09-03T03:58:59.525Z,0.90
2022-09-03T04:01:28.613Z,0.80
2022-09-03T04:03:58.505Z,0.40
2022-09-03T04:06:28.099Z,1.10
2022-09-03T04:08:55.859Z,0.80
2022-09-03T04:11:24.728Z,0.90
2022-09-03T04:13:53.348Z,0.70
2022-09-03T04:16:23.618Z,0.80
2022-09-03T04:18:52.810Z,1.00
2022-09-03T04:21:28.365Z,0.80
2022-09-03T04:23:58.037Z,0.70
2022-09-03T04:26:31.273Z,1.10
2022-09-03T04:29:01.139Z,1.10
2022-09-03T04:31:29.377Z,0.60
2022-09-03T04:33:57.957Z,1.00
2022-09-03T04:36:28.495Z,0.50
2022-09-03T04:38:59.417Z,0.70
2022-09-03T04:41:29.718Z,1.10
2022-09-03T04:43:58.543Z,0.90
2022-09-03T04:46:33.690Z,1.30
2022-09-03T04:49:03.361Z,0.80
2022-09-03T04:51:31.685Z,0.80
2022-09-03T04:54:01.727Z,0.70
2022-09-03T04:56:35.049Z,0.70
2022-09-03T04:59:06.095Z,0.90
2022-09-03T05:01:35.606Z,1.00
2022-09-03T05:04:04.723Z,0.90
2022-09-03T05:06:33.758Z,0.70
2022-09-03T05:09:01.716Z,0.80
2022-09-03T05:11:30.116Z,0.60
2022-09-03T05:13:59.873Z,0.70
2022-09-03T05:16:30.169Z,0.70
2022-09-03T05:19:00.526Z,0.80
2022-09-03T05:21:29.230Z,1.30
2022-09-03T05:23:57.543Z,0.60
2022-09-03T05:26:28.231Z,0.70
2022-09-03T05:28:58.957Z,1.00
2022-09-03T05:31:30.092Z,0.80
2022-09-03T05:34:00.428Z,0.80
2022-09-03T05:36:31.490Z,0.60
2022-09-03T05:38:59.561Z,0.70
2022-09-03T05:41:28.950Z,0.70
2022-09-03T05:43:59.587Z,0.70
2022-09-03T05:46:32.876Z,0.90
2022-09-03T05:49:02.219Z,0.70
2022-09-03T05:51:31.267Z,1.20
2022-09-03T05:53:59.492Z,0.70
2022-09-03T05:56:29.878Z,0.60
2022-09-03T05:59:05.407Z,0.40
2022-09-03T06:01:35.406Z,0.50
2022-09-03T06:04:03.327Z,0.70
2022-09-03T06:06:33.191Z,0.60
2022-09-03T06:09:04.056Z,0.90
2022-09-03T06:11:34.671Z,0.90
2022-09-03T06:14:05.677Z,0.50
2022-09-03T06:16:36.036Z,0.60
2022-09-03T06:19:07.187Z,0.50
2022-09-03T06:21:36.603Z,0.70
2022-09-03T06:24:04.348Z,0.70
2022-09-03T06:26:31.932Z,0.80
2022-09-03T06:29:00.043Z,0.70
2022-09-03T06:31:28.106Z,0.90
2022-09-03T06:33:59.673Z,0.60
2022-09-03T06:36:30.146Z,0.50
2022-09-03T06:38:58.510Z,0.70
2022-09-03T06:41:29.194Z,0.80
2022-09-03T06:44:02.944Z,0.60
2022-09-03T06:46:33.073Z,1.00
2022-09-03T06:49:00.931Z,0.50
2022-09-03T06:51:31.423Z,0.50
2022-09-03T06:54:02.114Z,0.70
2022-09-03T06:56:29.810Z,0.90
2022-09-03T06:58:59.554Z,0.90
2022-09-03T07:01:31.273Z,0.70
2022-09-03T07:04:01.984Z,0.70
2022-09-03T07:06:38.812Z,0.70
2022-09-03T07:09:07.355Z,0.60
2022-09-03T07:11:35.903Z,1.00
2022-09-03T07:14:05.224Z,0.50
2022-09-03T07:16:35.999Z,0.60
2022-09-03T07:19:05.168Z,0.60
2022-09-03T07:21:36.583Z,0.70
2022-09-03T07:24:06.039Z,0.80
2022-09-03T07:26:39.271Z,0.70
2022-09-03T07:29:07.862Z,0.60
2022-09-03T07:31:38.320Z,1.70
2022-09-03T07:34:10.007Z,1.00
2022-09-03T07:36:41.608Z,0.60
2022-09-03T07:39:12.368Z,0.50
2022-09-03T07:41:43.370Z,0.60
2022-09-03T07:44:16.091Z,1.00
2022-09-03T07:46:46.050Z,0.90
2022-09-03T07:49:13.922Z,0.70
2022-09-03T07:51:41.592Z,0.90
2022-09-03T07:54:11.196Z,0.70
2022-09-03T07:56:40.453Z,0.60
2022-09-03T07:59:08.914Z,0.80
2022-09-03T08:01:39.173Z,0.60
2022-09-03T08:04:10.785Z,0.60
2022-09-03T08:06:39.601Z,0.60
2022-09-03T08:09:11.205Z,0.50
2022-09-03T08:11:41.425Z,0.60
2022-09-03T08:14:11.846Z,0.40
2022-09-03T08:16:42.536Z,0.50
2022-09-03T08:19:13.042Z,0.60
2022-09-03T08:21:44.122Z,0.60
2022-09-03T08:24:12.547Z,0.50
2022-09-03T08:26:45.238Z,0.70
2022-09-03T08:29:14.422Z,0.50
2022-09-03T08:31:42.948Z,0.50
2022-09-03T08:34:11.791Z,0.50
2022-09-03T08:36:43.403Z,0.60
2022-09-03T08:39:11.472Z,0.50
2022-09-03T08:42:03.479Z,0.60
2022-09-03T08:44:56.093Z,0.90
2022-09-03T08:47:43.748Z,0.40
2022-09-03T08:50:14.364Z,0.40
2022-09-03T08:52:50.187Z,0.70
2022-09-03T08:55:44.767Z,0.80
2022-09-03T08:58:16.483Z,0.60
2022-09-03T09:00:48.333Z,0.70
2022-09-03T09:03:37.948Z,0.70
2022-09-03T09:06:13.315Z,0.60
2022-09-03T09:09:00.093Z,0.60
2022-09-03T09:11:33.654Z,0.50
2022-09-03T09:14:12.687Z,0.40
2022-09-03T09:16:49.260Z,0.30
2022-09-03T09:19:30.627Z,0.60
2022-09-03T09:22:07.719Z,0.60
2022-09-03T09:24:53.190Z,0.40
2022-09-03T09:27:21.226Z,0.60
2022-09-03T09:29:50.700Z,0.50
2022-09-03T09:32:21.647Z,0.60
2022-09-03T09:34:52.547Z,0.50
2022-09-03T09:37:21.433Z,0.60
2022-09-03T09:39:57.727Z,0.60
2022-09-03T09:42:26.260Z,0.50
2022-09-03T09:44:53.922Z,0.80
2022-09-03T09:47:34.695Z,0.50
2022-09-03T09:50:03.678Z,0.40
2022-09-03T09:52:31.485Z,1.20
2022-09-03T09:55:09.030Z,0.80
2022-09-03T09:57:38.664Z,0.60
2022-09-03T10:00:13.206Z,1.10
2022-09-03T10:02:54.211Z,0.70
2022-09-03T10:05:26.593Z,1.00
2022-09-03T10:07:59.642Z,0.60
2022-09-03T10:10:29.176Z,0.70
2022-09-03T10:13:02.817Z,0.80
2022-09-03T10:15:53.429Z,0.60
2022-09-03T10:18:42.294Z,0.60
2022-09-03T10:21:26.275Z,0.60
2022-09-03T10:24:06.202Z,0.70
2022-09-03T10:26:36.796Z,0.50
2022-09-03T10:29:07.034Z,0.50
2022-09-03T10:31:56.931Z,0.40
2022-09-03T10:34:49.547Z,0.40
2022-09-03T10:37:38.632Z,0.50
2022-09-03T10:40:12.999Z,0.40
2022-09-03T10:42:45.732Z,0.60
2022-09-03T10:45:41.159Z,0.50
2022-09-03T10:48:28.357Z,0.50
2022-09-03T10:51:06.497Z,0.60
2022-09-03T10:54:06.055Z,0.90
2022-09-03T10:57:03.596Z,0.50
2022-09-03T10:59:55.216Z,0.50
2022-09-03T11:02:28.760Z,0.60
2022-09-03T11:05:05.994Z,0.40
2022-09-03T11:07:58.530Z,0.80
2022-09-03T11:10:32.819Z,0.40
2022-09-03T11:13:22.985Z,0.60
2022-09-03T11:15:55.119Z,0.50
2022-09-03T11:18:29.201Z,0.60
2022-09-03T11:21:01.369Z,0.60
2022-09-03T11:23:33.639Z,0.50
2022-09-03T11:26:07.102Z,0.80
2022-09-03T11:28:53.546Z,0.60
2022-09-03T11:31:57.637Z,0.70
2022-09-03T11:37:28.026Z,0.80
2022-09-03T11:40:03.851Z,0.60
2022-09-03T11:42:38.986Z,0.70
2022-09-03T11:45:30.092Z,0.60
2022-09-03T11:47:58.797Z,0.80
2022-09-03T11:50:32.216Z,0.60
2022-09-03T11:53:16.388Z,0.70
2022-09-03T11:55:54.623Z,7.90
2022-09-03T11:58:34.602Z,0.50
2022-09-03T12:01:07.967Z,0.60
2022-09-03T12:03:42.683Z,0.60
2022-09-03T12:06:26.807Z,1.20
2022-09-03T12:09:14.367Z,0.60
2022-09-03T12:12:10.849Z,0.80
2022-09-03T12:15:10.433Z,0.70
2022-09-03T12:18:12.054Z,0.60
2022-09-03T12:20:40.852Z,0.50
2022-09-03T12:23:29.353Z,0.50
2022-09-03T12:26:03.943Z,0.50
2022-09-03T12:28:36.103Z,0.70
2022-09-03T12:31:17.555Z,0.50
2022-09-03T12:33:45.206Z,0.40
2022-09-03T12:36:14.052Z,0.70
2022-09-03T12:39:10.070Z,0.60
2022-09-03T12:41:31.704Z,0.60
2022-09-03T12:44:00.884Z,0.60
2022-09-03T12:46:33.730Z,0.60
2022-09-03T12:52:21.127Z,0.70
2022-09-03T12:54:59.749Z,0.40
2022-09-03T12:57:35.303Z,0.50
2022-09-03T13:00:07.301Z,0.80
2022-09-03T13:02:57.005Z,0.60
2022-09-03T13:05:46.926Z,0.50
2022-09-03T13:08:24.801Z,0.40
2022-09-03T13:10:58.197Z,0.60
2022-09-03T13:13:29.373Z,0.60
2022-09-03T13:16:09.991Z,0.50
2022-09-03T13:18:54.157Z,0.60
2022-09-03T13:21:52.803Z,0.80
2022-09-03T13:24:37.909Z,0.40
2022-09-03T13:27:28.828Z,0.70
2022-09-03T13:30:03.043Z,0.60
2022-09-03T13:32:51.301Z,0.80
2022-09-03T13:35:29.351Z,0.50
2022-09-03T13:38:19.048Z,0.60
2022-09-03T13:41:21.816Z,0.80
2022-09-03T13:44:08.613Z,0.70
2022-09-03T13:46:45.407Z,0.40
2022-09-03T13:49:51.121Z,0.70
2022-09-03T13:52:42.609Z,0.60
2022-09-03T13:55:19.494Z,0.80
2022-09-03T13:58:01.530Z,0.70
2022-09-03T14:01:01.781Z,0.60
2022-09-03T14:03:36.086Z,0.50
2022-09-03T14:06:09.958Z,0.60
2022-09-03T14:08:55.490Z,0.50
2022-09-03T14:11:40.820Z,1.80
2022-09-03T14:14:40.459Z,1.20
2022-09-03T14:17:19.301Z,1.50
2022-09-03T14:20:02.385Z,0.80
2022-09-03T14:22:48.956Z,0.60
2022-09-03T14:25:23.607Z,0.70
2022-09-03T14:27:51.958Z,0.80
2022-09-03T14:30:33.161Z,0.60
2022-09-03T14:33:39.718Z,0.70
2022-09-03T14:36:22.928Z,0.80
2022-09-03T14:39:12.535Z,0.70
2022-09-03T14:41:59.626Z,0.90
2022-09-03T14:44:30.984Z,0.90
2022-09-03T14:47:28.260Z,1.00
2022-09-03T14:50:19.769Z,3.50
2022-09-03T14:53:00.175Z,0.70
2022-09-03T14:55:57.617Z,0.70
2022-09-03T14:58:34.649Z,0.60
2022-09-03T15:01:13.295Z,0.40
2022-09-03T15:04:13.310Z,0.70
2022-09-03T15:07:12.917Z,0.70
2022-09-03T15:09:51.839Z,0.70
2022-09-03T15:12:28.903Z,1.00
2022-09-03T15:14:59.235Z,1.10
2022-09-03T15:17:58.908Z,2.00
2022-09-03T15:20:33.177Z,1.00
2022-09-03T15:23:23.120Z,0.80
2022-09-03T15:26:12.556Z,1.00
2022-09-03T15:29:12.410Z,0.90
2022-09-03T15:32:04.841Z,0.70
2022-09-03T15:34:47.795Z,0.60
2022-09-03T15:37:38.392Z,0.70
2022-09-03T15:40:21.905Z,0.90
2022-09-03T15:42:55.322Z,0.80
2022-09-03T15:45:32.710Z,0.80
2022-09-03T15:48:19.690Z,0.90
2022-09-03T15:51:10.460Z,0.90
2022-09-03T15:54:03.406Z,1.60
2022-09-03T15:56:47.148Z,1.10
2022-09-03T15:59:47.284Z,1.60
2022-09-03T16:02:20.801Z,1.80
2022-09-03T16:04:55.544Z,1.50
2022-09-03T16:07:42.218Z,1.20
2022-09-03T16:10:26.294Z,1.30
2022-09-03T16:13:26.338Z,1.90
2022-09-03T16:16:26.458Z,1.10
2022-09-03T16:19:13.518Z,1.80
2022-09-03T16:22:00.212Z,2.50
2022-09-03T16:24:47.330Z,1.70
2022-09-03T16:27:21.310Z,1.10
2022-09-03T16:30:12.569Z,1.50
2022-09-03T16:32:59.168Z,2.00
2022-09-03T16:35:42.884Z,1.60
2022-09-03T16:38:17.083Z,1.60
2022-09-03T16:41:17.264Z,1.40
2022-09-03T16:44:04.058Z,1.40
2022-09-03T16:46:50.545Z,2.10
2022-09-03T16:49:50.160Z,2.50
2022-09-03T16:52:43.982Z,2.50
2022-09-03T16:55:31.261Z,2.60
2022-09-03T16:58:14.799Z,2.40
2022-09-03T17:00:49.257Z,2.00
2022-09-03T17:03:26.781Z,2.60
2022-09-03T17:06:15.855Z,1.60
2022-09-03T17:09:09.550Z,1.70
2022-09-03T17:12:04.071Z,1.50
2022-09-03T17:14:50.643Z,2.00
2022-09-03T17:17:25.623Z,1.80
2022-09-03T17:20:14.828Z,1.90
2022-09-03T17:23:14.479Z,2.10
2022-09-03T17:26:05.466Z,2.10
2022-09-03T17:29:00.853Z,1.70
2022-09-03T17:31:51.602Z,1.40
2022-09-03T17:34:42.286Z,1.30
2022-09-03T17:37:36.125Z,1.50
2022-09-03T17:42:49.199Z,1.90
2022-09-03T17:45:33.953Z,1.50
2022-09-03T17:48:18.845Z,1.10
2022-09-03T17:51:06.069Z,1.40
2022-09-03T17:53:57.410Z,1.50
2022-09-03T17:56:29.628Z,1.70
2022-09-03T17:59:18.158Z,1.70
2022-09-03T18:01:58.916Z,1.90
2022-09-03T18:04:46.401Z,1.70
2022-09-03T18:07:23.547Z,1.60
2022-09-03T18:10:01.977Z,1.60
2022-09-03T18:13:03.507Z,1.50
2022-09-03T18:15:45.901Z,2.10
2022-09-03T18:18:33.858Z,2.00
2022-09-03T18:21:25.440Z,2.00
2022-09-03T18:27:11.447Z,2.00
2022-09-03T18:30:17.164Z,2.50
2022-09-03T18:33:00.806Z,3.40
2022-09-03T18:38:29.089Z,3.60
2022-09-03T18:44:03.224Z,3.50
2022-09-03T18:50:41.955Z,4.70
2022-09-03T18:53:58.481Z,4.60
2022-09-03T18:56:45.087Z,4.40
2022-09-03T18:59:58.610Z,4.90
2022-09-03T19:03:05.348Z,4.30
2022-09-03T19:05:51.616Z,3.80
2022-09-03T19:08:49.060Z,3.70
2022-09-03T19:11:43.565Z,3.70
2022-09-03T19:14:41.837Z,4.00
2022-09-03T19:17:53.950Z,3.50
2022-09-03T19:20:46.171Z,3.50
2022-09-03T19:23:30.334Z,3.50
2022-09-03T19:26:21.530Z,4.00
2022-09-03T19:29:11.537Z,3.70
2022-09-03T19:31:55.054Z,3.30
2022-09-03T19:35:08.620Z,4.60
2022-09-03T19:38:08.210Z,3.60
2022-09-03T19:41:04.841Z,3.80
2022-09-03T19:44:14.494Z,3.50
2022-09-03T19:47:15.925Z,3.10
2022-09-03T19:50:14.736Z,3.30
2022-09-03T19:53:23.008Z,2.80
2022-09-03T19:56:12.612Z,2.80
2022-09-03T19:59:03.334Z,2.70
2022-09-03T20:01:52.749Z,2.40
2022-09-03T20:04:43.999Z,2.20
2022-09-03T20:07:26.557Z,2.40
2022-09-03T20:10:13.730Z,2.10
2022-09-03T20:12:47.703Z,3.30
2022-09-03T20:15:15.413Z,1.90
2022-09-03T20:17:49.148Z,2.10
2022-09-03T20:20:29.701Z,1.80
2022-09-03T20:23:12.524Z,1.70
2022-09-03T20:25:40.084Z,2.10
2022-09-03T20:28:38.070Z,2.20
2022-09-03T20:31:39.962Z,2.40
2022-09-03T20:34:26.736Z,1.50
2022-09-03T20:37:17.526Z,1.80
2022-09-03T20:39:58.500Z,2.00
2022-09-03T20:42:53.536Z,2.10
2022-09-03T20:45:55.664Z,1.90
2022-09-03T20:48:49.388Z,1.30
2022-09-03T20:51:23.097Z,1.90
2022-09-03T20:53:55.025Z,2.20
2022-09-03T20:56:29.637Z,1.80
2022-09-03T20:59:03.436Z,1.70
2022-09-03T21:01:45.684Z,2.80
2022-09-03T21:04:33.057Z,1.50
2022-09-03T21:07:16.301Z,1.80
2022-09-03T21:09:49.372Z,1.50
2022-09-03T21:12:53.928Z,1.60
2022-09-03T21:15:33.905Z,1.50
2022-09-03T21:18:21.419Z,1.90
2022-09-03T21:21:05.023Z,1.70
2022-09-03T21:23:39.755Z,1.70
2022-09-03T21:26:26.016Z,1.70
2022-09-03T21:29:00.335Z,1.40
2022-09-03T21:32:00.002Z,2.10
2022-09-03T21:34:40.769Z,1.80
2022-09-03T21:37:13.303Z,1.70
2022-09-03T21:39:54.629Z,1.40
2022-09-03T21:42:52.587Z,1.40
2022-09-03T21:45:46.792Z,1.50
2022-09-03T21:48:25.264Z,1.40
2022-09-03T21:50:57.263Z,1.40
2022-09-03T21:53:41.168Z,2.00
2022-09-03T21:59:29.666Z,1.60
2022-09-03T22:02:12.123Z,2.10
2022-09-03T22:04:39.757Z,1.00
2022-09-03T22:07:22.938Z,1.70
2022-09-03T22:10:12.827Z,1.50
2022-09-03T22:12:57.676Z,1.10
2022-09-03T22:15:25.352Z,1.30
2022-09-03T22:18:15.362Z,1.00
2022-09-03T22:20:52.608Z,1.20
2022-09-03T22:23:28.965Z,1.70
2022-09-03T22:26:12.452Z,1.60
2022-09-03T22:28:55.965Z,1.70
2022-09-03T22:31:35.386Z,1.10
2022-09-03T22:34:09.035Z,1.60
2022-09-03T22:36:41.547Z,1.30
2022-09-03T22:39:19.242Z,1.20
2022-09-03T22:42:02.964Z,1.10
2022-09-03T22:45:09.352Z,1.40
2022-09-03T22:47:56.063Z,1.20
2022-09-03T22:50:42.968Z,1.20
2022-09-03T22:53:43.589Z,1.40
2022-09-03T22:56:15.206Z,1.30
2022-09-03T22:59:14.830Z,1.50
2022-09-03T23:01:53.079Z,1.60
2022-09-03T23:04:29.891Z,1.50
2022-09-03T23:07:03.577Z,1.20
2022-09-03T23:09:36.957Z,1.30
2022-09-03T23:12:15.080Z,1.10
2022-09-03T23:14:51.364Z,1.40
2022-09-03T23:20:13.057Z,1.40
2022-09-03T23:22:51.499Z,1.40
2022-09-03T23:25:26.012Z,1.50
2022-09-03T23:28:06.596Z,1.00
2022-09-03T23:30:34.230Z,1.30
2022-09-03T23:33:02.647Z,1.70
2022-09-03T23:35:43.482Z,1.30
2022-09-03T23:38:31.287Z,1.60
2022-09-03T23:41:06.265Z,1.40
2022-09-03T23:43:58.775Z,1.70
2022-09-03T23:47:00.524Z,1.60
2022-09-03T23:49:35.098Z,1.50
2022-09-03T23:52:24.842Z,1.60
2022-09-03T23:55:18.799Z,1.80
2022-09-03T23:58:01.902Z,1.50
